»·PEaware :: N850R KDVT-KTUS

N850R :: KDVT-KTUS

FLIGHT INFORMATION

Flight Status: Arrived
Operator: Privately registered:
United States
More flights under this callsign
Pilot: Anonymous 39792 (39792)
Aircraft: BEECH AIRCRAFT BONANZA
(BE36)
More flights by this aircraft type
Origin: KDVT Phoenix Deer Valley
United States
Destination: KTUS Tucson Intl
United States
More flights between these airports :: More routes between these airports
Route: DVT3 PXR V105 TUS
File this flight plan on PilotEdge
Remarks: Real-world pilot - Using VR
Altitude:
(Current/Filed)
9,000ft
Speed:
(Current/Filed)
175kts
Departed: 31-Oct-23 02:45 PM
Arrived: 31-Oct-23 03:38 PM
Distance/Time
Traveled:
110nm/0:53
Distance/Time
To Go:
Arrived

Flight Plot

Page will automatically refresh every two minutes.

Flight plan parsing failed; only flown route is shown


Map Options




Map Legend


Flown Route
Filed Route
Departure Airport
Arrival Airport
Navaid (VOR, NDB)
Fix

Horizontal Profiles

Position Reports

Time Latitude Longitude Heading Altitude Ground
Speed
31-Oct-23 13:53 33.684942 -112.085356 176 1551ft 0kts
31-Oct-23 13:54 33.684942 -112.085356 176 1551ft 0kts
31-Oct-23 13:55 33.684942 -112.085356 176 1551ft 0kts
31-Oct-23 13:56 33.684942 -112.085356 176 1551ft 0kts
31-Oct-23 13:57 33.684942 -112.085356 176 1551ft 0kts
31-Oct-23 13:58 33.684942 -112.085356 176 1551ft 0kts
31-Oct-23 13:59 33.684942 -112.085356 176 1551ft 0kts
31-Oct-23 14:00 33.684942 -112.085356 176 1551ft 0kts
31-Oct-23 14:01 33.684942 -112.085356 176 1551ft 0kts
31-Oct-23 14:04 33.685314 -112.085886 357 1520ft 0kts
31-Oct-23 14:05 33.685314 -112.085886 357 1520ft 0kts
31-Oct-23 14:06 33.685314 -112.085886 357 1520ft 0kts
31-Oct-23 14:07 33.685314 -112.085886 357 1520ft 0kts
31-Oct-23 14:15 33.686247 -112.080731 354 1513ft 0kts
31-Oct-23 14:16 33.686247 -112.080731 354 1513ft 0kts
31-Oct-23 14:17 33.686247 -112.080731 354 1513ft 0kts
31-Oct-23 14:18 33.686247 -112.080731 354 1513ft 0kts
31-Oct-23 14:19 33.686247 -112.080731 354 1513ft 0kts
31-Oct-23 14:23 33.871025 -117.979778 257 93ft 0kts
31-Oct-23 14:28 33.691406 -112.080811 181 1527ft 0kts
31-Oct-23 14:29 33.691406 -112.080811 181 1527ft 0kts
31-Oct-23 14:30 33.691406 -112.080811 181 1527ft 0kts
31-Oct-23 14:31 33.691406 -112.080811 181 1527ft 0kts
31-Oct-23 14:32 33.691406 -112.080811 181 1527ft 0kts
31-Oct-23 14:33 33.691406 -112.080811 181 1527ft 0kts
31-Oct-23 14:34 33.691406 -112.080811 181 1527ft 0kts
31-Oct-23 14:35 33.691406 -112.080811 181 1527ft 0kts
31-Oct-23 14:36 33.691406 -112.080811 181 1527ft 0kts
31-Oct-23 14:37 33.691406 -112.080811 181 1531ft 0kts
31-Oct-23 14:38 33.691406 -112.080811 180 1531ft 0kts
31-Oct-23 14:39 33.691406 -112.080811 180 1531ft 0kts
31-Oct-23 14:40 33.690577 -112.082327 179 1526ft 10kts
31-Oct-23 14:41 33.689938 -112.089422 219 1529ft 4kts
31-Oct-23 14:42 33.689837 -112.089450 178 1521ft 0kts
31-Oct-23 14:43 33.689656 -112.089441 176 1530ft 10kts
31-Oct-23 14:44 33.690545 -112.064621 87 2090ft 123kts
31-Oct-23 14:45 33.724270 -112.042928 348 2644ft 160kts
31-Oct-23 14:46 33.766278 -112.055528 344 3495ft 153kts
31-Oct-23 14:47 33.766301 -112.086331 197 4026ft 160kts
31-Oct-23 14:48 33.723741 -112.086121 139 4408ft 148kts
31-Oct-23 14:49 33.685713 -112.067916 158 5014ft 157kts
31-Oct-23 14:50 33.642276 -112.051100 158 5024ft 168kts
31-Oct-23 14:51 33.597877 -112.033901 158 5016ft 163kts
31-Oct-23 14:52 33.554962 -112.017301 157 5018ft 161kts
31-Oct-23 14:53 33.512024 -112.000702 157 5105ft 159kts
31-Oct-23 14:54 33.472986 -111.985639 156 6010ft 138kts
31-Oct-23 14:55 33.437348 -111.971889 156 6958ft 131kts
31-Oct-23 14:56 33.401848 -111.966683 168 7895ft 125kts
31-Oct-23 14:57 33.369057 -111.963003 168 8827ft 110kts
31-Oct-23 14:58 33.334204 -111.959033 169 8990ft 142kts
31-Oct-23 14:59 33.293045 -111.954415 170 9002ft 151kts
31-Oct-23 15:00 33.250753 -111.949651 170 9005ft 152kts
31-Oct-23 15:02 33.208888 -111.944924 171 8998ft 151kts
31-Oct-23 15:03 33.166415 -111.940149 170 8991ft 153kts
31-Oct-23 15:04 33.124202 -111.935402 170 8989ft 152kts
31-Oct-23 15:05 33.082029 -111.930678 171 8993ft 152kts
31-Oct-23 15:06 33.040115 -111.926002 170 8999ft 151kts
31-Oct-23 15:07 32.998079 -111.921295 169 9001ft 152kts
31-Oct-23 15:08 32.955871 -111.916546 169 9003ft 152kts
31-Oct-23 15:09 32.913839 -111.911875 170 8995ft 151kts
31-Oct-23 15:10 32.872622 -111.905077 136 8997ft 145kts
31-Oct-23 15:11 32.841698 -111.874716 143 8997ft 147kts
31-Oct-23 15:12 32.807558 -111.848325 143 8990ft 145kts
31-Oct-23 15:13 32.773047 -111.821741 143 8707ft 155kts
31-Oct-23 15:14 32.733499 -111.791302 144 8155ft 178kts
31-Oct-23 15:15 32.691396 -111.758926 145 7579ft 182kts
31-Oct-23 15:16 32.648572 -111.726022 145 6993ft 183kts
31-Oct-23 15:17 32.607994 -111.694875 145 6939ft 168kts
31-Oct-23 15:18 32.568994 -111.664962 144 6937ft 165kts
31-Oct-23 15:19 32.530430 -111.635408 145 6947ft 164kts
31-Oct-23 15:20 32.491996 -111.605977 144 6949ft 164kts
31-Oct-23 15:21 32.453672 -111.576669 144 6952ft 164kts
31-Oct-23 15:22 32.414340 -111.546607 145 6643ft 173kts
31-Oct-23 15:23 32.391646 -111.500943 115 6162ft 173kts
31-Oct-23 15:24 32.377318 -111.447450 107 5966ft 165kts
31-Oct-23 15:25 32.364337 -111.396135 107 5964ft 161kts
31-Oct-23 15:25 32.353585 -111.353626 107 5954ft 162kts
31-Oct-23 15:27 32.338415 -111.294294 107 5966ft 161kts
31-Oct-23 15:28 32.325024 -111.243417 107 5962ft 162kts
31-Oct-23 15:29 32.311322 -111.192600 108 5955ft 161kts
31-Oct-23 15:30 32.291881 -111.145864 132 5962ft 160kts
31-Oct-23 15:30 32.265145 -111.114328 133 5620ft 162kts
31-Oct-23 15:31 32.234243 -111.078064 132 5295ft 156kts
31-Oct-23 15:32 32.203343 -111.041771 131 4863ft 152kts
31-Oct-23 15:33 32.177666 -111.011574 129 4359ft 122kts
31-Oct-23 15:35 32.151138 -110.980483 129 3446ft 112kts
31-Oct-23 15:36 32.131261 -110.957186 129 2861ft 82kts
31-Oct-23 15:36 32.119988 -110.943809 129 2597ft 45kts
31-Oct-23 15:37 32.114206 -110.936906 16 2614ft 14kts
31-Oct-23 15:38 32.118001 -110.939184 316 2606ft 31kts
31-Oct-23 15:39 32.123751 -110.945924 315 2585ft 22kts
31-Oct-23 15:40 32.126163 -110.945493 133 2572ft 8kts
31-Oct-23 15:41 32.125616 -110.945644 316 2573ft 0kts

Navigation Log

Ident Type
Flight plan parsing failed, navigation log unavailable